Time,TemperatureF,DewpointF,PressureIn,WindDirection,WindDirectionDegrees,WindSpeedMPH,WindSpeedGustMPH,Humidity,HourlyPrecipIn,Conditions,Clouds,dailyrainin,SoftwareType,DateUTC
2017-03-26 00:01:00,60.3,35.2,29.90,SW,221,0.0,0.0,39,0.00,,,0.00,meteobridge,2017-03-26 07:01:00,
2017-03-26 00:06:00,60.3,35.2,29.91,SW,221,0.0,0.0,39,0.00,,,0.00,meteobridge,2017-03-26 07:06:00,
2017-03-26 00:11:00,60.6,35.6,29.90,SW,221,0.0,0.0,39,0.00,,,0.00,meteobridge,2017-03-26 07:11:00,
2017-03-26 00:16:00,61.3,35.6,29.90,SW,220,0.0,0.0,38,0.00,,,0.00,meteobridge,2017-03-26 07:16:00,
2017-03-26 00:21:00,61.5,35.6,29.90,SW,219,0.0,0.0,38,0.00,,,0.00,meteobridge,2017-03-26 07:21:00,
2017-03-26 00:26:00,62.1,35.4,29.90,SSW,198,0.0,0.0,37,0.00,,,0.00,meteobridge,2017-03-26 07:26:00,
2017-03-26 00:31:00,62.2,35.6,29.91,SSW,198,0.0,0.0,37,0.00,,,0.00,meteobridge,2017-03-26 07:31:00,
2017-03-26 00:36:00,62.2,35.6,29.90,SSW,198,0.0,0.0,37,0.00,,,0.00,meteobridge,2017-03-26 07:36:00,
2017-03-26 00:41:00,62.1,36.1,29.90,SSW,198,0.0,0.0,38,0.00,,,0.00,meteobridge,2017-03-26 07:41:00,
2017-03-26 00:42:00,61.9,36.0,29.90,SSW,198,0.0,0.0,38,0.00,,,0.00,meteobridge,2017-03-26 07:42:00,
2017-03-26 00:47:00,61.3,35.6,29.90,South,174,0.0,0.0,38,0.00,,,0.00,meteobridge,2017-03-26 07:47:00,
2017-03-26 00:53:00,60.8,35.6,29.90,South,174,0.0,0.0,39,0.00,,,0.00,meteobridge,2017-03-26 07:53:00,
2017-03-26 00:58:00,61.0,35.8,29.90,South,174,0.9,1.0,39,0.00,,,0.00,meteobridge,2017-03-26 07:58:00,
2017-03-26 01:03:00,61.2,35.4,29.90,South,174,0.0,1.0,38,0.00,,,0.00,meteobridge,2017-03-26 08:03:00,
2017-03-26 01:04:00,61.2,36.0,29.90,South,174,0.0,0.0,39,0.00,,,0.00,meteobridge,2017-03-26 08:04:00,
2017-03-26 01:09:00,60.6,35.6,29.90,South,174,0.9,1.0,39,0.00,,,0.00,meteobridge,2017-03-26 08:09:00,
2017-03-26 01:14:00,60.4,35.4,29.90,South,171,0.9,2.0,39,0.00,,,0.00,meteobridge,2017-03-26 08:14:00,
2017-03-26 01:19:00,60.3,35.2,29.90,South,170,0.0,1.0,39,0.00,,,0.00,meteobridge,2017-03-26 08:19:00,
2017-03-26 01:24:00,60.1,35.1,29.90,South,171,0.0,0.0,39,0.00,,,0.00,meteobridge,2017-03-26 08:24:00,
2017-03-26 01:29:00,59.9,35.6,29.90,South,171,0.0,0.0,40,0.00,,,0.00,meteobridge,2017-03-26 08:29:00,
2017-03-26 01:34:00,59.5,35.2,29.90,South,172,0.0,0.0,40,0.00,,,0.00,meteobridge,2017-03-26 08:34:00,
2017-03-26 01:39:00,59.5,35.2,29.90,South,172,0.0,0.0,40,0.00,,,0.00,meteobridge,2017-03-26 08:39:00,
2017-03-26 01:44:00,59.4,35.1,29.90,South,172,0.0,0.0,40,0.00,,,0.00,meteobridge,2017-03-26 08:44:00,
2017-03-26 01:49:00,59.0,35.4,29.90,SW,230,0.0,0.0,41,0.00,,,0.00,meteobridge,2017-03-26 08:49:00,
2017-03-26 01:54:00,57.6,34.0,29.90,West,281,0.0,2.0,41,0.00,,,0.00,meteobridge,2017-03-26 08:54:00,
2017-03-26 01:59:00,55.6,33.4,29.90,West,269,0.9,3.0,43,0.00,,,0.00,meteobridge,2017-03-26 08:59:00,
2017-03-26 02:04:00,55.0,34.2,29.90,West,264,0.0,2.0,45,0.00,,,0.00,meteobridge,2017-03-26 09:04:00,
2017-03-26 02:09:00,55.0,34.2,29.90,West,264,0.0,1.0,45,0.00,,,0.00,meteobridge,2017-03-26 09:09:00,
2017-03-26 02:14:00,55.2,34.2,29.90,West,278,0.0,2.0,45,0.00,,,0.00,meteobridge,2017-03-26 09:14:00,
2017-03-26 02:19:00,55.8,34.7,29.90,West,278,0.0,1.0,45,0.00,,,0.00,meteobridge,2017-03-26 09:19:00,
2017-03-26 02:24:00,55.0,34.2,29.90,West,278,0.0,1.0,45,0.00,,,0.00,meteobridge,2017-03-26 09:24:00,
2017-03-26 02:29:00,55.0,34.7,29.89,West,278,0.0,0.0,46,0.00,,,0.00,meteobridge,2017-03-26 09:29:00,
2017-03-26 02:34:00,55.0,34.7,29.89,West,278,0.0,1.0,46,0.00,,,0.00,meteobridge,2017-03-26 09:34:00,
2017-03-26 02:39:00,54.7,34.9,29.90,WSW,258,2.0,3.0,47,0.00,,,0.00,meteobridge,2017-03-26 09:39:00,
2017-03-26 02:44:00,54.0,34.2,29.89,West,274,2.0,2.0,47,0.00,,,0.00,meteobridge,2017-03-26 09:44:00,
2017-03-26 02:49:00,53.4,34.2,29.89,West,261,0.9,3.0,48,0.00,,,0.00,meteobridge,2017-03-26 09:49:00,
2017-03-26 02:54:00,53.4,34.7,29.89,West,267,0.9,1.0,49,0.00,,,0.00,meteobridge,2017-03-26 09:54:00,
2017-03-26 02:59:00,53.4,34.2,29.89,West,274,0.0,3.0,48,0.00,,,0.00,meteobridge,2017-03-26 09:59:00,
2017-03-26 03:04:00,53.1,33.8,29.89,West,268,0.0,2.0,48,0.00,,,0.00,meteobridge,2017-03-26 10:04:00,
2017-03-26 03:09:00,52.9,34.2,29.89,WSW,250,0.0,1.0,49,0.00,,,0.00,meteobridge,2017-03-26 10:09:00,
2017-03-26 03:15:00,53.1,34.3,29.89,West,270,0.0,1.0,49,0.00,,,0.00,meteobridge,2017-03-26 10:15:00,